Time;durP1;ratioP1;P1;durP2;ratioP2;P2;SDS_P1;SDS_P2;PMS_P1;PMS_P2;Temp;Humidity;BMP_temperature;BMP_pressure;BME280_temperature;BME280_humidity;BME280_pressure;Samples;Min_cycle;Max_cycle;Signal;HPM_P1;HPM_P2
2021/06/19 00:00:18;;;;;;;8.10;3.83;;;;;;;;;;5095257;28;20043;-68
2021/06/19 00:02:44;;;;;;;7.25;3.80;;;;;;;;;;5094662;28;20024;-68
2021/06/19 00:05:10;;;;;;;5.97;4.47;;;;;;;;;;5094673;28;20028;-68
2021/06/19 00:07:35;;;;;;;9.57;4.32;;;;;;;;;;5094996;28;20093;-67
2021/06/19 00:10:01;;;;;;;8.25;5.25;;;;;;;;;;5094823;28;20077;-67
2021/06/19 00:12:26;;;;;;;10.90;5.00;;;;;;;;;;5094538;28;20023;-68
2021/06/19 00:14:51;;;;;;;8.43;5.72;;;;;;;;;;5094718;28;20035;-67
2021/06/19 00:17:16;;;;;;;9.32;5.28;;;;;;;;;;5094882;28;20063;-68
2021/06/19 00:19:42;;;;;;;11.30;5.88;;;;;;;;;;5094500;28;20052;-66
2021/06/19 00:22:07;;;;;;;9.60;5.95;;;;;;;;;;5094469;28;20039;-66
2021/06/19 00:24:35;;;;;;;6.88;5.75;;;;;;;;;;5094740;28;20044;-66
2021/06/19 00:27:00;;;;;;;10.65;5.45;;;;;;;;;;5094332;28;20012;-66
2021/06/19 00:29:25;;;;;;;10.25;5.63;;;;;;;;;;5094262;28;20393;-66
2021/06/19 00:31:51;;;;;;;6.53;4.93;;;;;;;;;;5094705;28;20055;-67
2021/06/19 00:34:16;;;;;;;9.45;4.80;;;;;;;;;;5094303;28;20369;-67
2021/06/19 00:36:41;;;;;;;7.93;5.13;;;;;;;;;;5093849;28;20032;-68
2021/06/19 00:39:07;;;;;;;6.15;4.35;;;;;;;;;;5094424;28;20044;-68
2021/06/19 00:41:34;;;;;;;7.38;4.70;;;;;;;;;;5094349;28;20023;-67
2021/06/19 00:44:00;;;;;;;9.15;4.45;;;;;;;;;;5093742;28;20048;-66
2021/06/19 00:46:25;;;;;;;7.63;5.05;;;;;;;;;;5091614;28;20028;-65
2021/06/19 00:48:50;;;;;;;7.30;4.50;;;;;;;;;;5091977;28;20020;-64
2021/06/19 00:51:15;;;;;;;8.98;4.22;;;;;;;;;;5092425;28;20386;-65
2021/06/19 00:53:41;;;;;;;9.85;4.40;;;;;;;;;;5092262;28;20035;-65
2021/06/19 00:56:06;;;;;;;7.70;4.13;;;;;;;;;;5092955;28;20016;-65
2021/06/19 00:58:32;;;;;;;7.25;4.85;;;;;;;;;;5092065;28;20032;-65
2021/06/19 01:00:57;;;;;;;9.55;4.78;;;;;;;;;;5092506;28;20128;-65
2021/06/19 01:03:23;;;;;;;5.63;4.63;;;;;;;;;;5092539;28;20054;-65
2021/06/19 01:05:49;;;;;;;9.73;5.13;;;;;;;;;;5094124;28;20204;-66
2021/06/19 01:08:14;;;;;;;7.72;4.90;;;;;;;;;;5093479;28;20067;-66
2021/06/19 01:10:40;;;;;;;7.32;4.80;;;;;;;;;;5093553;28;20051;-66
2021/06/19 01:13:06;;;;;;;7.22;4.43;;;;;;;;;;5093463;28;20024;-66
2021/06/19 01:15:31;;;;;;;6.35;4.25;;;;;;;;;;5094043;28;20055;-66
2021/06/19 01:17:57;;;;;;;10.88;3.63;;;;;;;;;;5093009;28;20046;-66
2021/06/19 01:20:22;;;;;;;6.85;3.85;;;;;;;;;;5093092;28;20040;-66
2021/06/19 01:22:51;;;;;;;6.32;4.07;;;;;;;;;;5093294;28;20032;-65
2021/06/19 01:25:18;;;;;;;7.15;3.63;;;;;;;;;;5093574;28;20067;-66
2021/06/19 01:27:44;;;;;;;6.43;3.97;;;;;;;;;;5093169;28;20028;-65
2021/06/19 01:30:09;;;;;;;6.90;3.67;;;;;;;;;;5093491;28;20076;-66
2021/06/19 01:32:36;;;;;;;7.47;4.40;;;;;;;;;;5093188;28;20020;-65
2021/06/19 01:35:01;;;;;;;4.68;3.95;;;;;;;;;;5092999;28;20032;-65
2021/06/19 01:37:27;;;;;;;6.15;3.78;;;;;;;;;;5093219;28;20027;-65
2021/06/19 01:40:01;;;;;;;10.45;3.60;;;;;;;;;;5093390;28;20024;-66
2021/06/19 01:42:27;;;;;;;6.22;4.00;;;;;;;;;;5093079;28;20042;-65
2021/06/19 01:44:52;;;;;;;5.68;4.32;;;;;;;;;;5092824;28;20412;-65
2021/06/19 01:47:17;;;;;;;6.13;3.78;;;;;;;;;;5093473;28;20347;-65
2021/06/19 01:49:42;;;;;;;8.63;4.57;;;;;;;;;;5092895;28;20461;-66
2021/06/19 01:52:08;;;;;;;8.13;3.70;;;;;;;;;;5092663;28;20117;-66
2021/06/19 01:54:39;;;;;;;6.10;3.72;;;;;;;;;;5093115;28;20110;-66
2021/06/19 01:57:05;;;;;;;6.53;3.47;;;;;;;;;;5093066;28;20028;-66
2021/06/19 01:59:31;;;;;;;5.85;3.72;;;;;;;;;;5092039;28;20016;-65
2021/06/19 02:01:59;;;;;;;7.75;4.20;;;;;;;;;;5093036;28;20085;-67
2021/06/19 02:04:24;;;;;;;6.28;3.72;;;;;;;;;;5092115;28;20666;-68
2021/06/19 02:06:49;;;;;;;6.13;4.13;;;;;;;;;;5091751;28;20051;-68
2021/06/19 02:09:15;;;;;;;5.65;3.75;;;;;;;;;;5092279;28;20125;-68
2021/06/19 02:11:40;;;;;;;7.88;3.95;;;;;;;;;;5093207;28;20036;-67
2021/06/19 02:14:06;;;;;;;5.60;4.07;;;;;;;;;;5092560;28;20027;-65
2021/06/19 02:16:31;;;;;;;6.32;3.42;;;;;;;;;;5092601;28;20043;-66
2021/06/19 02:18:57;;;;;;;6.53;3.58;;;;;;;;;;5092699;28;20032;-66
2021/06/19 02:21:22;;;;;;;7.18;3.90;;;;;;;;;;5092663;28;20460;-66
2021/06/19 02:23:47;;;;;;;5.82;3.90;;;;;;;;;;5092624;28;20032;-66
2021/06/19 02:26:13;;;;;;;5.57;3.60;;;;;;;;;;5092646;28;20093;-66
2021/06/19 02:28:38;;;;;;;7.30;4.28;;;;;;;;;;5092316;28;20031;-65
2021/06/19 02:31:04;;;;;;;6.68;3.70;;;;;;;;;;5092287;28;20028;-65
2021/06/19 02:33:29;;;;;;;10.18;4.57;;;;;;;;;;5092465;28;20028;-66
2021/06/19 02:35:54;;;;;;;12.68;4.60;;;;;;;;;;5092540;28;20110;-65
2021/06/19 02:38:20;;;;;;;5.82;4.13;;;;;;;;;;5092355;28;20053;-66
2021/06/19 02:40:46;;;;;;;7.78;3.90;;;;;;;;;;5092366;28;20024;-66
2021/06/19 02:43:11;;;;;;;7.13;4.15;;;;;;;;;;5092728;28;20031;-66
2021/06/19 02:45:37;;;;;;;6.40;4.03;;;;;;;;;;5092075;28;20127;-66
2021/06/19 02:48:03;;;;;;;7.55;3.70;;;;;;;;;;5092311;28;20040;-65
2021/06/19 02:50:29;;;;;;;5.28;3.67;;;;;;;;;;5092376;28;20036;-65
2021/06/19 02:52:55;;;;;;;7.10;3.67;;;;;;;;;;5092178;28;20492;-66
2021/06/19 02:55:22;;;;;;;7.55;3.75;;;;;;;;;;5092032;28;20479;-66
2021/06/19 02:57:48;;;;;;;6.40;4.18;;;;;;;;;;5092721;28;20028;-65
2021/06/19 03:00:14;;;;;;;5.25;3.40;;;;;;;;;;5092791;28;20032;-65
2021/06/19 03:02:40;;;;;;;6.43;3.47;;;;;;;;;;5092023;28;20032;-66
2021/06/19 03:05:06;;;;;;;4.85;3.75;;;;;;;;;;5092240;28;20403;-66
2021/06/19 03:07:32;;;;;;;5.75;4.05;;;;;;;;;;5091697;28;20031;-66
2021/06/19 03:09:57;;;;;;;7.30;3.85;;;;;;;;;;5090839;28;20024;-65
2021/06/19 03:12:22;;;;;;;5.93;3.70;;;;;;;;;;5093567;28;20023;-67
2021/06/19 03:14:48;;;;;;;6.57;3.78;;;;;;;;;;5095089;28;20034;-68
2021/06/19 03:17:13;;;;;;;6.72;3.58;;;;;;;;;;5094427;28;20115;-67
2021/06/19 03:19:39;;;;;;;5.15;3.75;;;;;;;;;;5094323;28;20020;-68
2021/06/19 03:22:04;;;;;;;4.57;3.83;;;;;;;;;;5094622;28;20028;-68
2021/06/19 03:24:30;;;;;;;11.15;3.88;;;;;;;;;;5094122;28;20040;-65
2021/06/19 03:26:55;;;;;;;6.38;4.13;;;;;;;;;;5094383;28;20372;-65
2021/06/19 03:29:21;;;;;;;6.45;3.95;;;;;;;;;;5094361;28;20028;-65
2021/06/19 03:31:47;;;;;;;6.38;3.38;;;;;;;;;;5094064;28;20080;-65
2021/06/19 03:34:12;;;;;;;7.03;3.47;;;;;;;;;;5094200;28;20024;-65
2021/06/19 03:36:37;;;;;;;6.60;3.17;;;;;;;;;;5093874;28;20499;-65
2021/06/19 03:39:03;;;;;;;5.80;3.53;;;;;;;;;;5094238;28;20030;-65
2021/06/19 03:41:28;;;;;;;6.43;4.00;;;;;;;;;;5093996;28;20024;-65
2021/06/19 03:43:53;;;;;;;6.35;4.07;;;;;;;;;;5093813;28;20097;-65
2021/06/19 03:46:19;;;;;;;5.15;2.97;;;;;;;;;;5094317;28;20115;-65
2021/06/19 03:48:44;;;;;;;8.40;4.40;;;;;;;;;;5093668;28;20467;-65
2021/06/19 03:51:09;;;;;;;7.00;4.22;;;;;;;;;;5093929;28;20032;-65
2021/06/19 03:53:34;;;;;;;5.80;3.70;;;;;;;;;;5093917;28;20028;-65
2021/06/19 03:56:00;;;;;;;6.78;4.15;;;;;;;;;;5093892;28;20368;-65
2021/06/19 03:58:25;;;;;;;8.57;3.58;;;;;;;;;;5093874;28;20027;-65
2021/06/19 04:00:50;;;;;;;7.25;3.85;;;;;;;;;;5093824;28;20024;-68
2021/06/19 04:03:15;;;;;;;6.13;4.38;;;;;;;;;;5093394;28;20040;-68
2021/06/19 04:05:41;;;;;;;7.72;4.80;;;;;;;;;;5093533;28;20063;-68
2021/06/19 04:08:06;;;;;;;8.52;3.88;;;;;;;;;;5093771;28;20024;-68
2021/06/19 04:10:31;;;;;;;6.78;4.00;;;;;;;;;;5093782;28;20024;-68
2021/06/19 04:12:57;;;;;;;7.05;4.10;;;;;;;;;;5095254;28;20028;-68
2021/06/19 04:15:22;;;;;;;8.63;4.00;;;;;;;;;;5093868;28;20369;-68
2021/06/19 04:17:48;;;;;;;8.55;4.00;;;;;;;;;;5094389;28;20020;-68
2021/06/19 04:20:14;;;;;;;6.47;4.00;;;;;;;;;;5094761;28;20039;-68
2021/06/19 04:22:40;;;;;;;7.75;4.28;;;;;;;;;;5094652;28;20032;-68
2021/06/19 04:25:06;;;;;;;6.60;3.70;;;;;;;;;;5093991;28;20525;-65
2021/06/19 04:27:36;;;;;;;8.52;4.28;;;;;;;;;;5094550;28;20081;-65
2021/06/19 04:30:02;;;;;;;4.82;2.92;;;;;;;;;;5094752;28;20078;-66
2021/06/19 04:32:27;;;;;;;7.00;3.17;;;;;;;;;;5094281;28;20429;-65
2021/06/19 04:34:52;;;;;;;10.55;3.00;;;;;;;;;;5094066;28;20388;-65
2021/06/19 04:37:17;;;;;;;7.95;3.30;;;;;;;;;;5094847;28;20042;-66
2021/06/19 04:42:26;;;;;;;4.57;2.55;;;;;;;;;;5093945;28;20036;-66
2021/06/19 04:47:19;;;;;;;6.47;3.28;;;;;;;;;;5094654;28;20472;-65
2021/06/19 04:49:45;;;;;;;8.90;3.33;;;;;;;;;;5093887;28;20023;-65
2021/06/19 04:52:10;;;;;;;7.93;3.70;;;;;;;;;;5094081;28;20039;-66
2021/06/19 04:54:38;;;;;;;7.40;2.95;;;;;;;;;;5094238;28;20032;-66
2021/06/19 04:57:07;;;;;;;10.68;3.22;;;;;;;;;;5093940;28;20086;-65
2021/06/19 04:59:34;;;;;;;5.75;2.35;;;;;;;;;;5093712;28;20028;-66
2021/06/19 05:02:00;;;;;;;6.20;2.83;;;;;;;;;;5094170;28;20036;-65
2021/06/19 05:04:25;;;;;;;4.88;2.60;;;;;;;;;;5093762;28;20055;-66
2021/06/19 05:06:50;;;;;;;5.03;2.15;;;;;;;;;;5093594;28;20028;-66
2021/06/19 05:09:15;;;;;;;4.85;2.10;;;;;;;;;;5093890;28;20461;-65
2021/06/19 05:11:41;;;;;;;7.80;2.30;;;;;;;;;;5092594;28;20085;-65
2021/06/19 05:14:06;;;;;;;6.32;2.38;;;;;;;;;;5092192;28;20392;-65
2021/06/19 05:16:31;;;;;;;5.70;2.20;;;;;;;;;;5092348;28;20325;-65
2021/06/19 05:18:56;;;;;;;4.40;2.15;;;;;;;;;;5092242;28;20020;-65
2021/06/19 05:21:22;;;;;;;7.70;2.38;;;;;;;;;;5092158;28;20028;-65
2021/06/19 05:23:47;;;;;;;4.05;2.17;;;;;;;;;;5091863;28;20040;-65
2021/06/19 05:26:12;;;;;;;6.70;2.35;;;;;;;;;;5092041;28;20024;-65
2021/06/19 05:28:38;;;;;;;4.80;2.53;;;;;;;;;;5092185;28;20032;-65
2021/06/19 05:31:03;;;;;;;5.50;1.98;;;;;;;;;;5091876;28;20035;-65
2021/06/19 05:33:29;;;;;;;3.60;1.83;;;;;;;;;;5091924;28;20031;-64
2021/06/19 05:35:54;;;;;;;4.95;2.45;;;;;;;;;;5091740;28;20028;-65
2021/06/19 05:38:20;;;;;;;2.78;1.70;;;;;;;;;;5091720;28;20028;-65
2021/06/19 05:40:46;;;;;;;4.38;2.10;;;;;;;;;;5092073;28;20147;-65
2021/06/19 05:43:11;;;;;;;6.20;2.22;;;;;;;;;;5091568;28;20078;-65
2021/06/19 05:45:36;;;;;;;6.13;2.22;;;;;;;;;;5091550;28;20040;-65
2021/06/19 05:48:02;;;;;;;7.40;2.05;;;;;;;;;;5091973;28;20020;-65
2021/06/19 05:50:27;;;;;;;3.08;1.73;;;;;;;;;;5091768;28;20019;-65
2021/06/19 05:52:52;;;;;;;3.63;2.15;;;;;;;;;;5091602;28;20084;-65
2021/06/19 05:55:17;;;;;;;2.92;1.77;;;;;;;;;;5090255;28;20174;-65
2021/06/19 05:57:43;;;;;;;2.65;1.90;;;;;;;;;;5092077;28;20035;-66
2021/06/19 06:00:09;;;;;;;4.20;1.73;;;;;;;;;;5091443;28;20028;-65
2021/06/19 06:02:34;;;;;;;5.07;1.80;;;;;;;;;;5093010;28;20012;-65
2021/06/19 06:04:59;;;;;;;4.85;1.90;;;;;;;;;;5092273;28;20044;-65
2021/06/19 06:07:25;;;;;;;6.55;2.22;;;;;;;;;;5093288;28;20456;-65
2021/06/19 06:09:50;;;;;;;4.30;1.73;;;;;;;;;;5092803;28;20440;-65
2021/06/19 06:12:15;;;;;;;7.30;1.55;;;;;;;;;;5092521;28;20024;-65
2021/06/19 06:14:40;;;;;;;5.18;1.80;;;;;;;;;;5092877;28;20110;-65
2021/06/19 06:17:06;;;;;;;4.30;1.58;;;;;;;;;;5093031;28;20372;-65
2021/06/19 06:19:32;;;;;;;4.18;1.95;;;;;;;;;;5091808;28;20032;-64
2021/06/19 06:21:57;;;;;;;3.22;1.55;;;;;;;;;;5092705;28;20547;-65
2021/06/19 06:24:23;;;;;;;4.97;1.77;;;;;;;;;;5092648;28;20110;-65
2021/06/19 06:26:48;;;;;;;3.28;1.70;;;;;;;;;;5092546;28;20028;-65
2021/06/19 06:29:13;;;;;;;4.15;2.08;;;;;;;;;;5092425;28;20024;-65
2021/06/19 06:31:38;;;;;;;5.63;2.15;;;;;;;;;;5093014;28;20471;-65
2021/06/19 06:34:04;;;;;;;4.32;1.67;;;;;;;;;;5092341;28;20028;-66
2021/06/19 06:36:29;;;;;;;3.75;1.60;;;;;;;;;;5092273;28;20028;-64
2021/06/19 06:38:57;;;;;;;8.45;2.28;;;;;;;;;;5092853;28;20025;-65
2021/06/19 06:41:23;;;;;;;3.47;1.40;;;;;;;;;;5092267;28;20642;-65
2021/06/19 06:43:49;;;;;;;2.78;1.75;;;;;;;;;;5092151;28;20032;-65
2021/06/19 06:46:14;;;;;;;5.95;2.42;;;;;;;;;;5092149;28;20024;-65
2021/06/19 06:48:39;;;;;;;5.03;1.85;;;;;;;;;;5095738;28;20445;-65
2021/06/19 06:51:04;;;;;;;4.97;1.77;;;;;;;;;;5096179;28;20034;-65
2021/06/19 06:53:30;;;;;;;4.38;1.80;;;;;;;;;;5096307;28;20091;-65
2021/06/19 06:55:55;;;;;;;4.53;2.22;;;;;;;;;;5096680;28;20028;-65
2021/06/19 06:58:20;;;;;;;4.18;2.40;;;;;;;;;;5096717;28;20032;-65
2021/06/19 07:00:46;;;;;;;3.67;1.85;;;;;;;;;;5096449;28;20518;-65
2021/06/19 07:03:11;;;;;;;4.20;1.90;;;;;;;;;;5096496;28;20127;-65
2021/06/19 07:05:36;;;;;;;2.92;1.73;;;;;;;;;;5096569;28;20093;-65
2021/06/19 07:08:02;;;;;;;8.15;2.20;;;;;;;;;;5096158;28;20020;-65
2021/06/19 07:10:27;;;;;;;3.83;2.20;;;;;;;;;;5096273;28;20035;-65
2021/06/19 07:12:52;;;;;;;6.07;2.22;;;;;;;;;;5095970;28;20039;-65
2021/06/19 07:15:18;;;;;;;4.15;2.05;;;;;;;;;;5096295;28;20099;-65
2021/06/19 07:17:44;;;;;;;4.72;1.88;;;;;;;;;;5096184;28;20085;-65
2021/06/19 07:20:10;;;;;;;3.83;1.88;;;;;;;;;;5096003;28;20063;-64
2021/06/19 07:22:35;;;;;;;5.18;1.88;;;;;;;;;;5096221;28;20031;-65
2021/06/19 07:25:01;;;;;;;5.80;1.73;;;;;;;;;;5096095;28;20039;-65
2021/06/19 07:27:27;;;;;;;4.50;2.22;;;;;;;;;;5096188;28;20036;-65
2021/06/19 07:29:52;;;;;;;2.95;1.75;;;;;;;;;;5094718;28;20453;-65
2021/06/19 07:32:18;;;;;;;3.75;2.10;;;;;;;;;;5096014;28;20043;-65
2021/06/19 07:34:43;;;;;;;2.67;1.80;;;;;;;;;;5095693;28;20035;-65
2021/06/19 07:37:08;;;;;;;4.03;2.30;;;;;;;;;;5096000;28;20024;-65
2021/06/19 07:39:33;;;;;;;5.50;1.88;;;;;;;;;;5095451;28;20024;-66
2021/06/19 07:41:59;;;;;;;3.70;1.65;;;;;;;;;;5095844;28;20124;-65
2021/06/19 07:44:24;;;;;;;2.63;1.58;;;;;;;;;;5095707;28;20392;-65
2021/06/19 07:46:50;;;;;;;4.65;1.70;;;;;;;;;;5095589;28;20106;-65
2021/06/19 07:49:16;;;;;;;3.78;1.52;;;;;;;;;;5095695;28;20035;-65
2021/06/19 07:51:42;;;;;;;2.15;1.38;;;;;;;;;;5095640;28;20020;-65
2021/06/19 07:54:07;;;;;;;3.50;1.70;;;;;;;;;;5095552;28;20028;-65
2021/06/19 07:56:32;;;;;;;2.85;1.30;;;;;;;;;;5095533;28;20043;-65
2021/06/19 07:58:57;;;;;;;2.85;1.48;;;;;;;;;;5095103;28;20024;-65
2021/06/19 08:01:23;;;;;;;3.38;1.80;;;;;;;;;;5095523;28;20040;-65
2021/06/19 08:03:48;;;;;;;3.67;1.60;;;;;;;;;;5095192;28;20061;-66
2021/06/19 08:06:13;;;;;;;2.50;1.45;;;;;;;;;;5095370;28;20020;-65
2021/06/19 08:08:39;;;;;;;3.00;1.40;;;;;;;;;;5093184;28;20112;-64
2021/06/19 08:11:04;;;;;;;4.45;1.65;;;;;;;;;;5094615;28;20107;-65
2021/06/19 08:13:29;;;;;;;6.65;2.08;;;;;;;;;;5094376;28;20023;-65
2021/06/19 08:15:57;;;;;;;6.82;2.50;;;;;;;;;;5094445;28;20027;-65
2021/06/19 08:18:22;;;;;;;4.70;2.25;;;;;;;;;;5094383;28;20106;-65
2021/06/19 08:20:48;;;;;;;3.95;2.10;;;;;;;;;;5094420;28;20055;-65
2021/06/19 08:23:13;;;;;;;3.10;1.90;;;;;;;;;;5094399;28;20031;-64
2021/06/19 08:25:38;;;;;;;6.75;3.15;;;;;;;;;;5094577;28;20127;-65
2021/06/19 08:28:04;;;;;;;4.82;1.70;;;;;;;;;;5094710;28;20016;-65
2021/06/19 08:30:29;;;;;;;4.88;1.80;;;;;;;;;;5094847;28;20034;-65
2021/06/19 08:32:54;;;;;;;4.13;1.85;;;;;;;;;;5094889;28;20392;-64
2021/06/19 08:35:19;;;;;;;3.72;1.85;;;;;;;;;;5094687;28;20031;-65
2021/06/19 08:37:45;;;;;;;2.67;1.77;;;;;;;;;;5094771;28;20028;-66
2021/06/19 08:40:10;;;;;;;5.72;1.88;;;;;;;;;;5094583;28;20115;-65
2021/06/19 08:42:36;;;;;;;7.32;2.53;;;;;;;;;;5094404;28;20444;-65
2021/06/19 08:45:02;;;;;;;4.65;2.40;;;;;;;;;;5094403;28;20053;-66
2021/06/19 08:47:34;;;;;;;3.83;1.75;;;;;;;;;;5094607;28;20035;-64
2021/06/19 08:50:02;;;;;;;3.25;2.03;;;;;;;;;;5094441;28;20020;-66
2021/06/19 08:52:27;;;;;;;3.20;1.77;;;;;;;;;;5093288;28;20385;-65
2021/06/19 08:54:52;;;;;;;2.28;1.40;;;;;;;;;;5093980;28;20043;-65
2021/06/19 08:57:18;;;;;;;8.30;1.98;;;;;;;;;;5092188;28;20020;-64
2021/06/19 08:59:48;;;;;;;3.92;1.70;;;;;;;;;;5093267;28;20024;-65
2021/06/19 09:02:13;;;;;;;2.63;1.42;;;;;;;;;;5093232;28;20024;-65
2021/06/19 09:04:51;;;;;;;3.30;1.70;;;;;;;;;;5092891;28;20063;-65
2021/06/19 09:07:33;;;;;;;2.38;1.58;;;;;;;;;;5092250;28;20500;-65
2021/06/19 09:10:14;;;;;;;3.08;1.50;;;;;;;;;;5093176;28;20036;-67
2021/06/19 09:12:39;;;;;;;5.78;1.60;;;;;;;;;;5093675;28;20032;-68
2021/06/19 09:15:14;;;;;;;4.90;1.05;;;;;;;;;;5093584;28;20032;-67
2021/06/19 09:17:39;;;;;;;3.47;1.30;;;;;;;;;;5094145;28;20385;-67
2021/06/19 09:20:05;;;;;;;2.20;1.20;;;;;;;;;;5093960;28;20040;-68
2021/06/19 09:22:30;;;;;;;2.33;1.60;;;;;;;;;;5093661;28;20027;-65
2021/06/19 09:24:57;;;;;;;1.80;1.00;;;;;;;;;;5093680;28;20044;-65
2021/06/19 09:27:33;;;;;;;2.67;1.13;;;;;;;;;;5093926;28;20081;-65
2021/06/19 09:30:05;;;;;;;1.17;0.80;;;;;;;;;;5093450;28;20081;-65
2021/06/19 09:32:30;;;;;;;1.00;0.55;;;;;;;;;;5093735;28;20054;-65
2021/06/19 09:35:09;;;;;;;1.27;0.70;;;;;;;;;;5093604;28;20369;-65
2021/06/19 09:37:38;;;;;;;2.03;0.80;;;;;;;;;;5093706;28;20028;-65
2021/06/19 09:40:18;;;;;;;2.17;1.20;;;;;;;;;;5093567;28;20032;-65
2021/06/19 09:42:43;;;;;;;2.15;0.73;;;;;;;;;;5093548;28;20028;-66
2021/06/19 09:45:16;;;;;;;1.45;0.70;;;;;;;;;;5093488;28;20381;-65
2021/06/19 09:47:42;;;;;;;0.68;0.60;;;;;;;;;;5093501;28;20028;-65
2021/06/19 09:50:07;;;;;;;0.90;0.60;;;;;;;;;;5093467;28;20028;-65
2021/06/19 09:52:33;;;;;;;0.70;0.60;;;;;;;;;;5093532;28;20072;-65
2021/06/19 09:54:59;;;;;;;3.55;0.63;;;;;;;;;;5093320;28;20035;-65
2021/06/19 09:57:38;;;;;;;3.08;1.40;;;;;;;;;;5093570;28;20024;-65
2021/06/19 10:00:03;;;;;;;0.60;0.50;;;;;;;;;;5093437;28;20036;-65
2021/06/19 10:02:29;;;;;;;0.88;0.65;;;;;;;;;;5093371;28;20036;-65
2021/06/19 10:04:56;;;;;;;2.25;0.70;;;;;;;;;;5092934;28;20044;-65
2021/06/19 10:07:22;;;;;;;0.80;0.50;;;;;;;;;;5093311;28;20027;-65
2021/06/19 10:09:51;;;;;;;1.10;0.60;;;;;;;;;;5093214;28;20024;-65
2021/06/19 10:12:19;;;;;;;0.80;0.65;;;;;;;;;;5093249;28;20334;-66
2021/06/19 10:14:44;;;;;;;0.75;0.47;;;;;;;;;;5093166;28;20020;-66
2021/06/19 10:17:10;;;;;;;1.08;0.57;;;;;;;;;;5093328;28;20024;-65
2021/06/19 10:19:36;;;;;;;2.63;0.43;;;;;;;;;;5092945;28;20465;-66
2021/06/19 10:22:01;;;;;;;0.50;0.50;;;;;;;;;;5095937;28;20063;-65
2021/06/19 10:24:26;;;;;;;0.75;0.45;;;;;;;;;;5095490;28;20068;-66
2021/06/19 10:26:52;;;;;;;1.23;0.50;;;;;;;;;;5096644;28;20461;-66
2021/06/19 10:29:18;;;;;;;1.10;0.50;;;;;;;;;;5096546;28;20011;-65
2021/06/19 10:31:50;;;;;;;1.40;0.50;;;;;;;;;;5097065;28;20036;-68
2021/06/19 10:34:18;;;;;;;0.50;0.50;;;;;;;;;;5097311;28;20028;-67
2021/06/19 10:36:44;;;;;;;0.60;0.50;;;;;;;;;;5091598;28;20031;-68
2021/06/19 10:39:09;;;;;;;1.00;0.40;;;;;;;;;;5096973;28;20036;-69
2021/06/19 10:41:43;;;;;;;3.70;0.93;;;;;;;;;;5088332;28;20024;-68
2021/06/19 10:44:09;;;;;;;0.82;0.45;;;;;;;;;;5094453;28;20054;-68
2021/06/19 10:46:34;;;;;;;1.55;0.60;;;;;;;;;;5094684;28;20028;-68
2021/06/19 10:49:22;;;;;;;1.23;0.68;;;;;;;;;;5094972;28;20082;-67
2021/06/19 10:51:48;;;;;;;2.15;0.50;;;;;;;;;;5092103;28;20039;-68
2021/06/19 10:54:13;;;;;;;1.15;0.60;;;;;;;;;;5095757;28;20024;-68
2021/06/19 10:56:51;;;;;;;1.52;0.70;;;;;;;;;;5096355;28;20027;-68
2021/06/19 10:59:17;;;;;;;2.45;1.08;;;;;;;;;;5092909;28;20464;-68
2021/06/19 11:01:43;;;;;;;0.82;0.73;;;;;;;;;;5096643;28;20039;-68
2021/06/19 11:04:28;;;;;;;1.60;0.95;;;;;;;;;;5096509;28;20052;-68
2021/06/19 11:06:53;;;;;;;2.58;1.40;;;;;;;;;;5095751;28;20032;-68
2021/06/19 11:09:25;;;;;;;1.85;0.70;;;;;;;;;;5096057;28;20067;-68
2021/06/19 11:11:51;;;;;;;1.33;1.23;;;;;;;;;;5096500;28;20073;-69
2021/06/19 11:14:34;;;;;;;3.00;1.10;;;;;;;;;;5096312;28;20028;-65
2021/06/19 11:17:00;;;;;;;2.35;0.98;;;;;;;;;;5095781;28;20479;-68
2021/06/19 11:19:32;;;;;;;1.95;0.88;;;;;;;;;;5095851;28;20036;-68
2021/06/19 11:22:15;;;;;;;2.50;0.98;;;;;;;;;;5096302;28;20032;-67
2021/06/19 11:25:01;;;;;;;1.83;0.90;;;;;;;;;;5095759;28;20140;-68
2021/06/19 11:27:45;;;;;;;1.30;0.85;;;;;;;;;;5095514;28;20028;-68
2021/06/19 11:30:30;;;;;;;4.65;1.20;;;;;;;;;;5095532;28;20027;-68
2021/06/19 11:33:15;;;;;;;2.30;1.23;;;;;;;;;;5094901;28;20035;-69
2021/06/19 11:35:41;;;;;;;4.68;0.98;;;;;;;;;;5095167;28;20028;-66
2021/06/19 11:38:06;;;;;;;1.20;0.82;;;;;;;;;;5095994;28;20104;-65
2021/06/19 11:40:33;;;;;;;2.25;0.98;;;;;;;;;;5095555;28;20020;-65
2021/06/19 11:42:59;;;;;;;2.15;1.13;;;;;;;;;;5095633;28;20465;-65
2021/06/19 11:45:24;;;;;;;2.00;1.02;;;;;;;;;;5095491;28;20077;-65
2021/06/19 11:48:09;;;;;;;3.15;1.35;;;;;;;;;;5095396;28;20031;-66
2021/06/19 11:50:35;;;;;;;4.30;1.10;;;;;;;;;;5095285;28;20040;-64
2021/06/19 11:53:19;;;;;;;1.50;0.98;;;;;;;;;;5095844;28;20058;-66
2021/06/19 11:55:44;;;;;;;1.95;0.85;;;;;;;;;;5094887;28;20032;-65
2021/06/19 11:58:10;;;;;;;1.80;1.05;;;;;;;;;;5095214;28;20043;-65
2021/06/19 12:00:51;;;;;;;1.60;1.20;;;;;;;;;;5095145;28;20476;-67
2021/06/19 12:03:23;;;;;;;4.78;1.60;;;;;;;;;;5095381;28;20048;-68
2021/06/19 12:05:48;;;;;;;7.25;2.30;;;;;;;;;;5095204;28;20045;-68
2021/06/19 12:08:14;;;;;;;1.65;1.10;;;;;;;;;;5094815;28;20528;-67
2021/06/19 12:10:39;;;;;;;11.27;1.77;;;;;;;;;;5082800;28;20040;-68
2021/06/19 12:13:05;;;;;;;23.55;3.72;;;;;;;;;;5074674;28;20028;-67
2021/06/19 12:15:31;;;;;;;7.93;2.10;;;;;;;;;;5076312;28;20461;-66
2021/06/19 12:17:58;;;;;;;3.08;1.55;;;;;;;;;;5093475;28;20056;-68
2021/06/19 12:20:23;;;;;;;2.58;1.20;;;;;;;;;;5094993;28;20078;-68
2021/06/19 12:22:49;;;;;;;4.93;1.00;;;;;;;;;;5095087;28;20437;-68
2021/06/19 12:25:46;;;;;;;1.50;1.17;;;;;;;;;;5094578;28;20043;-68
2021/06/19 12:28:23;;;;;;;3.03;0.95;;;;;;;;;;5081721;28;20040;-68
2021/06/19 12:30:58;;;;;;;2.20;1.08;;;;;;;;;;5094944;28;20106;-65
2021/06/19 12:33:26;;;;;;;3.25;1.17;;;;;;;;;;5094747;28;20059;-65
2021/06/19 12:35:52;;;;;;;3.42;1.02;;;;;;;;;;5094317;28;20477;-66
2021/06/19 12:38:19;;;;;;;1.75;0.90;;;;;;;;;;5094645;28;20035;-65
2021/06/19 12:40:44;;;;;;;1.35;0.90;;;;;;;;;;5092055;28;20437;-66
2021/06/19 12:43:09;;;;;;;1.90;1.23;;;;;;;;;;5094045;28;20167;-65
2021/06/19 12:45:45;;;;;;;2.85;1.10;;;;;;;;;;5093672;28;20062;-66
2021/06/19 12:48:17;;;;;;;3.88;1.20;;;;;;;;;;5094126;28;20460;-65
2021/06/19 12:50:42;;;;;;;5.68;1.10;;;;;;;;;;5094673;28;20039;-66
2021/06/19 12:53:10;;;;;;;1.83;0.82;;;;;;;;;;5094197;28;20024;-66
2021/06/19 12:55:42;;;;;;;1.27;0.98;;;;;;;;;;5093041;28;20024;-65
2021/06/19 12:58:18;;;;;;;2.28;1.15;;;;;;;;;;5093612;28;20389;-66
2021/06/19 13:00:55;;;;;;;2.35;1.15;;;;;;;;;;5094040;28;20047;-65
2021/06/19 13:03:36;;;;;;;1.80;1.15;;;;;;;;;;5094292;28;20055;-65
2021/06/19 13:06:02;;;;;;;2.72;1.48;;;;;;;;;;5094051;28;20111;-66
2021/06/19 13:08:28;;;;;;;3.47;1.38;;;;;;;;;;5093104;28;20370;-66
2021/06/19 13:10:55;;;;;;;4.40;1.60;;;;;;;;;;5093703;28;20024;-65
2021/06/19 13:13:40;;;;;;;3.80;1.40;;;;;;;;;;5093920;28;20061;-65
2021/06/19 13:16:06;;;;;;;4.93;1.85;;;;;;;;;;5092319;28;20051;-66
2021/06/19 13:18:31;;;;;;;4.05;1.58;;;;;;;;;;5093561;28;20098;-66
2021/06/19 13:21:05;;;;;;;1.70;1.55;;;;;;;;;;5093844;28;20114;-66
2021/06/19 13:23:31;;;;;;;3.03;1.75;;;;;;;;;;5093873;28;20119;-65
2021/06/19 13:25:59;;;;;;;2.83;1.60;;;;;;;;;;5091342;28;20107;-66
2021/06/19 13:28:25;;;;;;;2.30;1.40;;;;;;;;;;5085123;28;20028;-68
2021/06/19 13:31:10;;;;;;;4.38;1.80;;;;;;;;;;5079547;28;20031;-68
2021/06/19 13:33:36;;;;;;;;;;;;;;;;;;5084142;28;20051;-66
2021/06/19 13:36:01;;;;;;;4.60;2.23;;;;;;;;;;5086534;28;19958;-68
2021/06/19 13:38:27;;;;;;;4.38;1.73;;;;;;;;;;5084933;28;20413;-68
2021/06/19 13:40:52;;;;;;;1.70;1.40;;;;;;;;;;5090624;28;20069;-68
2021/06/19 13:43:17;;;;;;;5.05;2.08;;;;;;;;;;5072285;28;20042;-68
2021/06/19 13:45:42;;;;;;;3.80;1.73;;;;;;;;;;5070304;28;20495;-68
2021/06/19 13:48:08;;;;;;;3.70;1.80;;;;;;;;;;5069805;28;20017;-68
2021/06/19 13:50:33;;;;;;;4.30;2.20;;;;;;;;;;5072798;28;20028;-68
2021/06/19 13:53:02;;;;;;;4.80;2.20;;;;;;;;;;5077249;28;20044;-68
2021/06/19 13:55:28;;;;;;;6.22;2.60;;;;;;;;;;5079057;28;20128;-68
2021/06/19 13:57:53;;;;;;;4.75;2.25;;;;;;;;;;5085905;28;20476;-67
2021/06/19 14:00:19;;;;;;;3.05;1.77;;;;;;;;;;5081982;28;20115;-68
2021/06/19 14:02:44;;;;;;;5.00;1.65;;;;;;;;;;5076660;28;20031;-68
2021/06/19 14:05:10;;;;;;;6.38;2.33;;;;;;;;;;5087251;28;20113;-68
2021/06/19 14:07:35;;;;;;;4.32;2.67;;;;;;;;;;5078000;28;20029;-68
2021/06/19 14:10:00;;;;;;;3.28;1.85;;;;;;;;;;5067703;28;20046;-67
2021/06/19 14:12:26;;;;;;;4.68;1.67;;;;;;;;;;5068987;28;20032;-68
2021/06/19 14:14:51;;;;;;;2.30;1.73;;;;;;;;;;5069337;28;20453;-68
2021/06/19 14:17:16;;;;;;;2.10;1.67;;;;;;;;;;5069371;28;20028;-66
2021/06/19 14:19:41;;;;;;;2.28;1.60;;;;;;;;;;5069599;28;20461;-68
2021/06/19 14:22:07;;;;;;;2.70;1.90;;;;;;;;;;5069981;28;20082;-67
2021/06/19 14:24:32;;;;;;;2.30;1.67;;;;;;;;;;5069841;28;20461;-68
2021/06/19 14:27:21;;;;;;;2.35;1.60;;;;;;;;;;5069632;28;20039;-68
2021/06/19 14:29:45;;;;;;;2.92;1.40;;;;;;;;;;5069220;28;20446;-67
2021/06/19 14:32:12;;;;;;;1.67;1.20;;;;;;;;;;5070328;28;20024;-68
2021/06/19 14:34:38;;;;;;;5.43;2.03;;;;;;;;;;5071427;28;20032;-68
2021/06/19 14:37:03;;;;;;;2.90;1.60;;;;;;;;;;5090835;28;20016;-68
2021/06/19 14:39:29;;;;;;;2.33;1.40;;;;;;;;;;5089937;28;20043;-68
2021/06/19 14:41:54;;;;;;;3.00;1.50;;;;;;;;;;5090536;28;20531;-69
2021/06/19 14:44:20;;;;;;;2.33;1.60;;;;;;;;;;5067140;28;20032;-66
2021/06/19 14:46:45;;;;;;;2.60;1.60;;;;;;;;;;5069912;28;20032;-67